createdAt,value
2022-10-17T00:00:55.476Z,10.36
2022-10-17T00:05:06.693Z,10.35
2022-10-17T00:09:09.655Z,10.24
2022-10-17T00:13:12.312Z,10.13
2022-10-17T00:17:15.501Z,10.25
2022-10-17T00:21:21.041Z,10.27
2022-10-17T00:25:22.983Z,10.34
2022-10-17T00:29:24.602Z,10.32
2022-10-17T00:33:28.099Z,10.25
2022-10-17T00:37:33.691Z,10.26
2022-10-17T00:41:35.811Z,10.35
2022-10-17T00:45:40.455Z,10.35
2022-10-17T00:49:42.478Z,10.33
2022-10-17T00:53:44.347Z,10.30
2022-10-17T00:57:46.978Z,10.27
2022-10-17T01:02:00.677Z,10.19
2022-10-17T01:06:02.619Z,10.21
2022-10-17T01:10:06.138Z,10.16
2022-10-17T01:14:27.116Z,10.15
2022-10-17T01:19:01.473Z,10.19
2022-10-17T01:23:16.194Z,10.22
2022-10-17T01:27:36.173Z,10.34
2022-10-17T01:31:47.363Z,10.39
2022-10-17T01:36:04.787Z,10.53
2022-10-17T01:40:25.821Z,10.77
2022-10-17T01:45:10.254Z,10.94
2022-10-17T01:49:15.722Z,11.05
2022-10-17T01:53:35.792Z,11.13
2022-10-17T01:57:42.280Z,11.24
2022-10-17T02:01:47.408Z,11.24
2022-10-17T02:05:50.530Z,11.31
2022-10-17T02:09:52.540Z,11.25
2022-10-17T02:14:13.307Z,11.22
2022-10-17T02:18:38.149Z,11.21
2022-10-17T02:22:47.587Z,11.13
2022-10-17T02:27:12.260Z,11.09
2022-10-17T02:31:18.149Z,11.03
2022-10-17T02:35:22.299Z,10.94
2022-10-17T02:39:26.970Z,10.83
2022-10-17T02:43:31.355Z,10.80
2022-10-17T02:47:54.067Z,10.70
2022-10-17T02:52:07.506Z,10.62
2022-10-17T02:56:18.194Z,10.67
2022-10-17T03:00:23.645Z,10.70
2022-10-17T03:04:25.644Z,10.66
2022-10-17T03:08:27.384Z,10.71
2022-10-17T03:12:31.195Z,10.64
2022-10-17T03:16:33.541Z,10.51
2022-10-17T03:20:35.792Z,10.49
2022-10-17T03:24:37.421Z,10.48
2022-10-17T03:28:39.773Z,10.54
2022-10-17T03:32:41.462Z,10.57
2022-10-17T03:36:43.724Z,10.59
2022-10-17T03:40:54.962Z,10.64
2022-10-17T03:44:56.941Z,10.64
2022-10-17T03:48:58.630Z,10.69
2022-10-17T03:53:00.597Z,10.60
2022-10-17T03:57:02.539Z,10.65
2022-10-17T04:01:06.186Z,10.73
2022-10-17T04:05:08.286Z,10.73
2022-10-17T04:09:11.017Z,10.86
2022-10-17T04:13:39.000Z,10.98
2022-10-17T04:17:41.326Z,11.08
2022-10-17T04:21:44.087Z,11.20
2022-10-17T04:25:46.179Z,11.34
2022-10-17T04:29:48.230Z,11.41
2022-10-17T04:33:54.495Z,11.50
2022-10-17T04:37:56.749Z,11.53
2022-10-17T04:42:00.147Z,11.56
2022-10-17T04:46:04.975Z,11.59
2022-10-17T04:50:06.956Z,11.61
2022-10-17T04:54:10.511Z,11.57
2022-10-17T04:58:14.904Z,11.51
2022-10-17T05:02:17.120Z,11.50
2022-10-17T05:06:23.032Z,11.48
2022-10-17T05:10:46.206Z,11.42
2022-10-17T05:14:48.650Z,11.38
2022-10-17T05:18:53.943Z,11.46
2022-10-17T05:22:55.880Z,11.62
2022-10-17T05:26:58.320Z,11.73
2022-10-17T05:31:07.567Z,11.79
2022-10-17T05:35:09.568Z,11.78
2022-10-17T05:39:14.844Z,11.83
2022-10-17T05:43:17.587Z,11.84
2022-10-17T05:47:20.629Z,11.90
2022-10-17T05:51:22.527Z,11.85
2022-10-17T05:55:24.518Z,11.91
2022-10-17T05:59:27.886Z,11.95
2022-10-17T06:03:35.507Z,12.07
2022-10-17T06:07:41.053Z,12.19
2022-10-17T06:11:43.227Z,12.07
2022-10-17T06:15:46.213Z,12.05
2022-10-17T06:19:48.036Z,12.13
2022-10-17T06:23:51.428Z,12.16
2022-10-17T06:28:11.082Z,12.24
2022-10-17T06:32:15.103Z,12.32
2022-10-17T06:36:28.521Z,12.51
2022-10-17T06:40:30.372Z,12.55
2022-10-17T06:44:32.403Z,12.63
2022-10-17T06:48:57.731Z,12.82
2022-10-17T06:53:04.994Z,12.98
2022-10-17T06:57:25.219Z,13.17
2022-10-17T07:01:37.384Z,13.19
2022-10-17T07:05:39.752Z,13.43
2022-10-17T07:09:41.824Z,13.54
2022-10-17T07:13:44.039Z,13.71
2022-10-17T07:17:50.325Z,13.83
2022-10-17T07:21:54.317Z,13.97
2022-10-17T07:26:01.582Z,14.15
2022-10-17T07:30:04.236Z,14.21
2022-10-17T07:34:14.505Z,14.50
2022-10-17T07:38:16.440Z,14.46
2022-10-17T07:42:18.229Z,14.58
2022-10-17T07:46:20.094Z,14.80
2022-10-17T07:50:22.181Z,14.74
2022-10-17T07:54:23.992Z,14.94
2022-10-17T07:58:26.251Z,15.06
2022-10-17T08:02:28.375Z,15.17
2022-10-17T08:06:30.381Z,15.44
2022-10-17T08:10:32.170Z,15.60
2022-10-17T08:14:34.042Z,15.91
2022-10-17T08:18:36.858Z,16.05
2022-10-17T08:22:39.050Z,16.09
2022-10-17T08:26:43.426Z,16.25
2022-10-17T08:30:46.433Z,16.44
2022-10-17T08:34:48.490Z,16.34
2022-10-17T08:38:52.834Z,16.36
2022-10-17T08:43:08.457Z,16.49
2022-10-17T08:47:16.336Z,16.69
2022-10-17T08:51:27.558Z,16.76
2022-10-17T08:55:37.852Z,16.94
2022-10-17T08:59:43.650Z,17.03
2022-10-17T09:04:16.617Z,17.04
2022-10-17T09:08:33.751Z,17.36
2022-10-17T09:13:22.709Z,17.58
2022-10-17T09:17:31.098Z,17.71
2022-10-17T09:21:51.713Z,17.83
2022-10-17T09:25:55.125Z,18.14
2022-10-17T09:30:21.431Z,18.37
2022-10-17T09:34:35.226Z,18.62
2022-10-17T09:38:42.973Z,18.86
2022-10-17T09:42:47.145Z,19.01
2022-10-17T09:47:18.333Z,18.99
2022-10-17T09:51:25.595Z,19.05
2022-10-17T09:55:48.300Z,19.22
2022-10-17T10:00:04.299Z,19.30
2022-10-17T10:04:17.398Z,19.35
2022-10-17T10:08:19.797Z,19.63
2022-10-17T10:12:33.770Z,19.77
2022-10-17T10:16:43.239Z,19.79
2022-10-17T10:20:46.787Z,19.78
2022-10-17T10:25:07.811Z,19.73
2022-10-17T10:29:32.163Z,19.57
2022-10-17T10:33:41.771Z,19.88
2022-10-17T10:37:48.684Z,20.11
2022-10-17T10:41:50.721Z,20.27
2022-10-17T10:45:53.421Z,20.38
2022-10-17T10:50:29.223Z,20.37
2022-10-17T10:54:42.266Z,20.41
2022-10-17T10:58:47.347Z,20.34
2022-10-17T11:02:56.570Z,20.56
2022-10-17T11:07:23.073Z,20.57
2022-10-17T11:11:32.129Z,20.84
2022-10-17T11:15:59.232Z,20.78
2022-10-17T11:20:15.621Z,20.95
2022-10-17T11:24:40.862Z,20.73
2022-10-17T11:28:42.571Z,20.94
2022-10-17T11:32:50.759Z,20.97
2022-10-17T11:36:57.852Z,21.04
2022-10-17T11:41:00.195Z,21.00
2022-10-17T11:45:09.416Z,20.92
2022-10-17T11:49:20.629Z,20.83
2022-10-17T11:53:31.208Z,20.80
2022-10-17T11:57:56.094Z,20.92
2022-10-17T12:02:05.264Z,20.85
2022-10-17T12:06:16.750Z,20.99
2022-10-17T12:10:31.368Z,21.20
2022-10-17T12:14:45.768Z,21.22
2022-10-17T12:18:51.204Z,21.36
2022-10-17T12:23:20.023Z,21.43
2022-10-17T12:27:48.234Z,21.33
2022-10-17T12:31:50.102Z,21.39
2022-10-17T12:36:26.946Z,21.62
2022-10-17T12:40:34.815Z,21.80
2022-10-17T12:44:37.986Z,21.75
2022-10-17T12:48:39.841Z,21.92
2022-10-17T12:52:41.481Z,21.91
2022-10-17T12:56:47.541Z,21.90
2022-10-17T13:01:19.088Z,21.75
2022-10-17T13:05:32.749Z,21.92
2022-10-17T13:09:42.604Z,21.73
2022-10-17T13:13:50.358Z,21.70
2022-10-17T13:17:57.305Z,21.82
2022-10-17T13:22:06.932Z,21.61
2022-10-17T13:26:20.197Z,21.52
2022-10-17T13:30:26.685Z,21.32
2022-10-17T13:34:32.622Z,21.19
2022-10-17T13:38:38.970Z,21.03
2022-10-17T13:42:43.840Z,21.14
2022-10-17T13:46:46.066Z,20.99
2022-10-17T13:50:50.812Z,20.99
2022-10-17T13:54:53.911Z,21.04
2022-10-17T13:59:04.965Z,20.92
2022-10-17T14:03:07.145Z,20.90
2022-10-17T14:08:10.877Z,20.68
2022-10-17T14:12:13.715Z,20.58
2022-10-17T14:16:15.803Z,20.52
2022-10-17T14:20:57.533Z,20.36
2022-10-17T14:24:43.474Z,20.15
2022-10-17T14:28:49.103Z,20.03
2022-10-17T14:32:58.806Z,19.95
2022-10-17T14:37:02.598Z,19.74
2022-10-17T14:41:44.853Z,19.46
2022-10-17T14:45:47.011Z,19.31
2022-10-17T14:50:04.941Z,19.18
2022-10-17T14:54:26.042Z,19.01
2022-10-17T14:58:30.772Z,18.80
2022-10-17T15:02:32.919Z,18.76
2022-10-17T15:06:35.289Z,18.75
2022-10-17T15:10:37.697Z,18.49
2022-10-17T15:14:39.296Z,18.35
2022-10-17T15:18:41.210Z,18.19
2022-10-17T15:22:43.276Z,17.99
2022-10-17T15:26:45.179Z,17.88
2022-10-17T15:30:46.859Z,17.69
2022-10-17T15:34:48.776Z,17.55
2022-10-17T15:38:53.186Z,17.42
2022-10-17T15:42:59.047Z,17.25
2022-10-17T15:47:01.593Z,17.01
2022-10-17T15:51:03.466Z,16.78
2022-10-17T15:55:05.682Z,16.69
2022-10-17T15:59:13.866Z,16.44
2022-10-17T16:03:15.605Z,16.27
2022-10-17T16:07:19.290Z,16.07
2022-10-17T16:11:30.684Z,15.96
2022-10-17T16:15:32.572Z,15.85
2022-10-17T16:19:34.270Z,15.66
2022-10-17T16:23:36.200Z,15.46
2022-10-17T16:27:38.602Z,15.42
2022-10-17T16:31:43.372Z,15.24
2022-10-17T16:35:46.693Z,15.11
2022-10-17T16:39:52.438Z,14.93
2022-10-17T16:43:57.370Z,15.07
2022-10-17T16:47:59.348Z,14.98
2022-10-17T16:52:01.317Z,14.95
2022-10-17T16:56:04.604Z,14.87
2022-10-17T17:00:07.175Z,14.83
2022-10-17T17:04:09.493Z,14.76
2022-10-17T17:08:12.623Z,14.57
2022-10-17T17:12:14.815Z,14.54
2022-10-17T17:16:21.448Z,14.32
2022-10-17T17:20:23.424Z,14.27
2022-10-17T17:24:25.533Z,14.28
2022-10-17T17:28:27.919Z,14.21
2022-10-17T17:32:29.763Z,13.94
2022-10-17T17:36:34.702Z,13.86
2022-10-17T17:40:36.410Z,13.84
2022-10-17T17:44:38.367Z,13.80
2022-10-17T17:48:41.595Z,13.83
2022-10-17T17:52:45.591Z,13.79
2022-10-17T17:56:47.489Z,13.80
2022-10-17T18:00:49.380Z,13.80
2022-10-17T18:04:51.052Z,13.87
2022-10-17T18:08:55.849Z,13.83
2022-10-17T18:12:57.522Z,13.86
2022-10-17T18:16:59.371Z,13.87
2022-10-17T18:21:01.306Z,13.79
2022-10-17T18:25:03.407Z,13.68
2022-10-17T18:29:05.280Z,13.55
2022-10-17T18:33:07.272Z,13.60
2022-10-17T18:37:09.010Z,13.65
2022-10-17T18:41:16.260Z,13.65
2022-10-17T18:45:18.075Z,13.56
2022-10-17T18:49:21.667Z,13.58
2022-10-17T18:53:23.377Z,13.56
2022-10-17T18:57:26.265Z,13.55
2022-10-17T19:01:28.721Z,13.57
2022-10-17T19:05:30.433Z,13.55
2022-10-17T19:09:32.384Z,13.52
2022-10-17T19:13:35.317Z,13.48
2022-10-17T19:17:37.212Z,13.48
2022-10-17T19:21:40.024Z,13.48
2022-10-17T19:25:41.842Z,13.54
2022-10-17T19:29:44.070Z,13.59
2022-10-17T19:33:49.541Z,13.60
2022-10-17T19:37:51.441Z,13.64
2022-10-17T19:41:53.429Z,13.57
2022-10-17T19:45:57.247Z,13.54
2022-10-17T19:49:59.138Z,13.46
2022-10-17T19:54:01.421Z,13.32
2022-10-17T19:58:03.370Z,13.27
2022-10-17T20:02:05.072Z,13.28
2022-10-17T20:06:07.297Z,13.29
2022-10-17T20:10:09.396Z,13.19
2022-10-17T20:14:11.274Z,13.14
2022-10-17T20:18:12.962Z,13.08
2022-10-17T20:22:14.807Z,13.06
2022-10-17T20:26:33.185Z,13.10
2022-10-17T20:30:46.483Z,13.11
2022-10-17T20:34:48.415Z,13.18
2022-10-17T20:38:57.893Z,13.19
2022-10-17T20:42:59.627Z,13.11
2022-10-17T20:47:02.717Z,13.08
2022-10-17T20:51:09.154Z,13.11
2022-10-17T20:55:11.045Z,13.14
2022-10-17T20:59:14.989Z,13.12
2022-10-17T21:03:16.771Z,13.16
2022-10-17T21:07:18.620Z,13.14
2022-10-17T21:11:22.948Z,13.14
2022-10-17T21:15:24.653Z,13.17
2022-10-17T21:19:26.408Z,13.15
2022-10-17T21:23:28.109Z,13.20
2022-10-17T21:27:30.028Z,13.06
2022-10-17T21:31:36.987Z,13.02
2022-10-17T21:35:39.046Z,12.99
2022-10-17T21:39:40.747Z,12.96
2022-10-17T21:43:43.588Z,12.97
2022-10-17T21:48:11.126Z,12.99
2022-10-17T21:52:07.236Z,13.01
2022-10-17T21:56:14.998Z,12.93
2022-10-17T22:00:17.093Z,12.92
2022-10-17T22:04:19.582Z,12.94
2022-10-17T22:08:21.394Z,12.94
2022-10-17T22:12:23.454Z,12.94
2022-10-17T22:16:25.547Z,12.98
2022-10-17T22:20:27.401Z,12.98
2022-10-17T22:24:29.293Z,12.94
2022-10-17T22:28:31.623Z,12.95
2022-10-17T22:32:33.273Z,12.93
2022-10-17T22:36:35.818Z,12.87
2022-10-17T22:40:37.442Z,12.81
2022-10-17T22:44:39.272Z,12.67
2022-10-17T22:48:40.971Z,12.63
2022-10-17T22:52:42.718Z,12.52
2022-10-17T22:56:44.268Z,12.55
2022-10-17T23:00:46.716Z,12.53
2022-10-17T23:04:48.304Z,12.37
2022-10-17T23:08:50.598Z,12.39
2022-10-17T23:12:52.227Z,12.23
2022-10-17T23:16:54.060Z,12.16
2022-10-17T23:20:55.966Z,12.17
2022-10-17T23:24:57.895Z,12.13
2022-10-17T23:29:00.157Z,12.12
2022-10-17T23:33:03.044Z,12.09
2022-10-17T23:37:04.763Z,12.11
2022-10-17T23:41:06.877Z,12.14
2022-10-17T23:45:08.956Z,12.17
2022-10-17T23:49:11.365Z,12.09
2022-10-17T23:53:12.984Z,12.08
2022-10-17T23:57:14.888Z,12.01
